Pagina principale
METAR-TAF:

METAR-TAF

Aeroporti :

Aeroporto di Pechino-Capitale

Pechino, Cina

latitudine: 39-56N, longitudine: 116-17E, altezza: 55 m

Osservazione

Il bollettino è stato emesso 28 minuti fa, alle 19:00 UTC
Vento 2 kt da direzioni variabili
Temperature 25°C
Umidità 94%
Pressione 1004 hPa
Visibilità: 4000 m
Nubi sparse ad un'altezza di 600 ft
Cielo coperto ad un'altezza di 3300 ft
foschia

METAR: ZBAA 171900Z VRB01MPS 4000 BR SCT006 OVC033 25/24 Q1004 NOSIG

Ora: 03:28 (19:28 UTC)

Previsione

Il bollettino è stato emesso 3 ore e 58 minuti fa, alle 15:30 UTC
Previsione valida dal 17 alle 18 UTC al 18 alle 18 UTC
Vento 8 kt da sud-est
Visibilità: 6000 m
Temporaneamente
dal 17 alle 18 UTC al 17 alle 24 UTC
Visibilità: 2700 m
rovesci di pioggia

TAF: ZBAA 171530Z 1718/1818 13004MPS 6000 NSC TX32/1807Z TN23/1721Z TEMPO 1718/1724 2700 -SHRA

Osservazioni e previsioni meteorologiche di più di 4000 aeroporti (messaggi METAR e TAF).

Le stazioni disponibili sono rappresentate dai dischi gialli e rossi sulla carta.

Puntare il mouse per vedere il nome della stazione.

Clicca sopra per visualizzare le osservazioni e previsioni meteorologiche.

Per cambiare la mappa : fare clic sui pulsanti verdi con una croce nera per ingrandire, il pulsante verde con un trattino per diminuire, o sulla freccia verde per le mappe adiacenti.


METAR-TAF: